Flight Track Log - Related Links

Times and Time Zones

All times are in EDT time to prevent confusion due to time zone crossing. See the SWA232 flight status page for this flight to view local times or setup timezone preferences in your user account.

Time Position Orientation Groundspeed Altitude Reporting Facility
EDT Latitude Longitude Course Direction KTS MPH feet Rate Location/Type
Sun 06:32:05 AM 42.9500 -71.4167 North 166 191 1,200  Level KA90
Sun 06:33:26 AM 43.0250 -71.4064 North 213 245 4,900 3,194 Climbing Boston Center
Sun 06:35:26 AM 43.0644 -71.6217 284° West 277 319 11,900 3,533 Climbing Boston Center
Sun 06:36:26 AM 43.0694 -71.7581 273° West 346 398 15,500 3,150 Climbing Boston Center
Sun 06:37:26 AM 43.0742 -71.8831 273° West 367 422 18,200 2,550 Climbing Boston Center
Sun 06:38:26 AM 43.0811 -72.0422 273° West 367 422 20,600 2,400 Climbing Boston Center
Sun 06:39:26 AM 43.0878 -72.1956 273° West 388 447 23,000 2,350 Climbing Boston Center
Sun 06:40:26 AM 43.0986 -72.3547 275° West 415 478 25,300 2,050 Climbing Boston Center
Sun 06:41:26 AM 43.1069 -72.5197 274° West 431 496 27,100 1,750 Climbing Boston Center
Sun 06:42:26 AM 43.1044 -72.6989 269° West 451 519 28,800 1,650 Climbing Boston Center
Sun 06:43:26 AM 43.1061 -72.8753 271° West 465 535 30,400 1,400 Climbing Boston Center
Sun 06:44:26 AM 43.1158 -73.0431 275° West 484 557 31,600 1,500 Climbing Boston Center
Sun 06:45:26 AM 43.1189 -73.2253 271° West 489 563 33,400 1,750 Climbing Boston Center
Sun 06:46:26 AM 43.1214 -73.4272 271° West 489 563 35,100 1,800 Climbing Boston Center
Sun 06:47:26 AM 43.1258 -73.6064 272° West 484 557 37,000 1,800 Climbing Boston Center
Sun 06:48:26 AM 43.1283 -73.7772 271° West 467 537 38,700 1,050 Climbing Boston Center
Sun 06:49:26 AM 43.1325 -73.9481 272° West 461 531 39,100 650 Climbing Boston Center
Sun 06:50:26 AM 43.1383 -74.1189 273° West 461 531 40,000 450 Climbing Boston Center
Sun 06:51:26 AM 43.1419 -74.2925 272° West 461 531 40,000  Level Boston Center
Sun 06:52:26 AM 43.1433 -74.4547 271° West 456 525 40,000  Level Boston Center
Sun 06:53:26 AM 43.1486 -74.6258 272° West 451 519 40,000  Level Boston Center
Sun 06:54:26 AM 43.1411 -74.7906 266° West 440 506 40,000  Level Boston Center
Sun 06:55:26 AM 43.1106 -74.9514 255° West 440 506 40,000  Level Boston Center
Sun 06:56:26 AM 43.0756 -75.1178 254° West 450 518 40,000  Level Boston Center
Sun 06:57:26 AM 43.0422 -75.2811 254° West 450 518 40,000  Level Boston Center
Sun 06:58:26 AM 43.0111 -75.4417 255° West 450 518 40,000  Level Boston Center
Sun 06:59:26 AM 42.9775 -75.6044 254° West 450 518 40,000  Level Boston Center
Sun 07:00:26 AM 42.9436 -75.7703 254° West 450 518 40,000  Level Boston Center
Sun 07:01:26 AM 42.9119 -75.9272 255° West 450 518 40,000  Level Boston Center
Sun 07:03:48 AM 42.8325 -76.2850 253° West 440 506 40,000  Level Cleveland Center
Sun 07:04:48 AM 42.8008 -76.4456 255° West 435 501 40,000  Level Cleveland Center
Sun 07:05:48 AM 42.7669 -76.6036 254° West 440 506 40,000  Level Cleveland Center
Sun 07:06:48 AM 42.7289 -76.7756 253° West 440 506 40,000  Level Cleveland Center
Sun 07:07:48 AM 42.6944 -76.9331 253° West 440 506 40,000  Level Cleveland Center
Sun 07:08:48 AM 42.6597 -77.0906 253° West 440 506 40,000  Level Cleveland Center
Sun 07:09:48 AM 42.6247 -77.2506 253° West 440 506 40,000  Level Cleveland Center
Sun 07:10:48 AM 42.5894 -77.4075 253° West 440 506 40,000  Level Cleveland Center
Sun 07:11:48 AM 42.5581 -77.5528 254° West 445 512 40,000  Level Cleveland Center
Sun 07:12:48 AM 42.5203 -77.7097 252° West 445 512 40,000  Level Cleveland Center
Sun 07:13:48 AM 42.4825 -77.8719 253° West 445 512 40,000  Level Cleveland Center
Sun 07:14:48 AM 42.4486 -78.0281 254° West 445 512 40,000  Level Cleveland Center
Sun 07:15:48 AM 42.4125 -78.1872 253° West 445 512 40,000  Level Cleveland Center
Sun 07:16:48 AM 42.3758 -78.3431 252° West 445 512 40,000  Level Cleveland Center
Sun 07:17:48 AM 42.3394 -78.5017 253° West 445 512 40,000  Level Cleveland Center
Sun 07:18:48 AM 42.3025 -78.6600 253° West 445 512 40,000  Level Cleveland Center
Sun 07:19:48 AM 42.2633 -78.8156 251° West 445 512 40,000  Level Cleveland Center
Sun 07:20:48 AM 42.2261 -78.9736 252° West 445 512 40,000  Level Cleveland Center
Sun 07:21:48 AM 42.1883 -79.1289 252° West 445 512 40,000  Level Cleveland Center
Sun 07:22:48 AM 42.1486 -79.2836 251° West 440 506 40,000  Level Cleveland Center
Sun 07:23:48 AM 42.1064 -79.4386 250° West 445 512 40,000  Level Cleveland Center
Sun 07:24:48 AM 42.0642 -79.6097 252° West 445 512 40,000  Level Cleveland Center
Sun 07:25:48 AM 42.0217 -79.7669 250° West 445 512 40,000  Level Cleveland Center
Sun 07:26:48 AM 41.9811 -79.9183 250° West 445 512 40,000  Level Cleveland Center
Sun 07:27:48 AM 41.9422 -80.0583 250° West 451 519 40,000  Level Cleveland Center
Sun 07:28:48 AM 41.9011 -80.2094 250° West 444 511 40,000  Level Cleveland Center
Sun 07:29:48 AM 41.8617 -80.3572 250° West 437 503 40,000  Level Cleveland Center
Sun 07:30:48 AM 41.8203 -80.5136 250° West 437 503 40,000  Level Cleveland Center
Sun 07:31:48 AM 41.7744 -80.6806 250° West 445 512 40,000  Level Cleveland Center
Sun 07:32:48 AM 41.7325 -80.8364 250° West 445 512 40,000  Level Cleveland Center
Sun 07:33:48 AM 41.6903 -80.9864 249° West 445 512 40,000  Level Cleveland Center
Sun 07:34:48 AM 41.6481 -81.1361 249° West 445 512 40,000  Level Cleveland Center
Sun 07:35:48 AM 41.6056 -81.2914 250° West 445 512 40,000  Level Cleveland Center
Sun 07:36:48 AM 41.5628 -81.4433 249° West 451 519 40,000  Level Cleveland Center
Sun 07:37:48 AM 41.5219 -81.5953 250° West 444 511 40,000  Level Cleveland Center
Sun 07:38:48 AM 41.4786 -81.7528 250° West 450 518 40,000  Level Cleveland Center
Sun 07:39:48 AM 41.4311 -81.9042 247° West 450 518 40,000  Level Cleveland Center
Sun 07:40:48 AM 41.3875 -82.0583 249° West 450 518 40,000  Level Cleveland Center
Sun 07:41:48 AM 41.3603 -82.2208 257° West 451 519 40,000  Level Cleveland Center
Sun 07:42:48 AM 41.3706 -82.3844 275° West 444 511 40,000  Level Cleveland Center
Sun 07:43:48 AM 41.3803 -82.5508 275° West 454 522 40,000  Level Cleveland Center
Sun 07:44:48 AM 41.3897 -82.7197 274° West 459 528 40,000  Level Cleveland Center
Sun 07:45:48 AM 41.3969 -82.8861 273° West 459 528 40,000  Level Cleveland Center
Sun 07:46:48 AM 41.4061 -83.0417 275° West 465 535 40,000  Level Cleveland Center
Sun 07:47:48 AM 41.4128 -83.2053 273° West 459 528 40,000  Level Cleveland Center
Sun 07:48:48 AM 41.4214 -83.3772 274° West 465 535 40,000  Level Cleveland Center
Sun 07:49:48 AM 41.4297 -83.5439 274° West 465 535 40,000  Level Cleveland Center
Sun 07:50:48 AM 41.4397 -83.7133 275° West 465 535 40,000  Level Cleveland Center
Sun 07:51:48 AM 41.4453 -83.8853 273° West 465 535 40,000 -933 Level Cleveland Center
Sun 07:53:48 AM 41.4625 -84.2019 274° West 454 522 37,200 -2,122 Descending Chicago Center
Sun 07:54:49 AM 41.4719 -84.4089 274° West 466 536 33,600 -3,223 Descending Chicago Center
Sun 07:55:49 AM 41.4783 -84.5861 273° West 476 548 30,700 -1,785 Descending Chicago Center
Sun 07:56:50 AM 41.4853 -84.7547 273° West 461 531 30,000 -341 Descending Chicago Center
Sun 07:57:52 AM 41.4906 -84.9211 272° West 451 519 30,000 -238 Level Chicago Center
Sun 07:58:56 AM 41.4967 -85.0875 273° West 450 518 29,500 -1,440 Descending Chicago Center
Sun 07:59:57 AM 41.5014 -85.2525 272° West 445 512 27,000 -2,361 Descending Chicago Center
Sun 08:00:58 AM 41.5056 -85.4153 272° West 433 498 24,700 -1,918 Descending Chicago Center
Sun 08:01:59 AM 41.5119 -85.5728 273° West 415 478 23,100 -1,623 Descending Chicago Center
Sun 08:03:00 AM 41.5167 -85.7261 272° West 411 473 21,400 -1,967 Descending Chicago Center
Sun 08:04:01 AM 41.5206 -85.8781 272° West 406 467 19,100 -2,066 Descending Chicago Center
Sun 08:05:02 AM 41.5239 -86.0256 272° West 399 459 17,200 -1,918 Descending Chicago Center
Sun 08:06:03 AM 41.5244 -86.1675 270° West 386 444 15,200 -2,311 Descending Chicago Center
Sun 08:07:04 AM 41.5228 -86.3056 269° West 375 432 12,500 -2,557 Descending Chicago Center
Sun 08:08:05 AM 41.5217 -86.4753 270° West 382 440 10,000 -1,230 Descending Chicago Center
Sun 08:09:06 AM 41.5211 -86.6036 270° West 352 405 10,000  Level Chicago Center
Sun 08:10:08 AM 41.5206 -86.7117 270° West 340 391 10,000 -537 Level Chicago Center
Sun 08:11:09 AM 41.5203 -86.8508 270° West 316 364 8,900 -1,033 Descending Chicago Center
Sun 08:12:10 AM 41.5181 -86.9617 269° West 303 349 7,900 -984 Descending Chicago Center
Sun 08:13:11 AM 41.5167 -87.0731 269° West 302 348 6,900 -934 Descending Chicago Center
Sun 08:14:12 AM 41.5150 -87.1822 269° West 299 344 6,000 -639 Descending Chicago Center
Sun 08:15:13 AM 41.5156 -87.2886 270° West 291 335 5,600 -590 Descending Chicago Center
Sun 08:16:14 AM 41.5131 -87.3950 268° West 289 333 4,800 -780 Descending Chicago Center
Sun 08:17:16 AM 41.5119 -87.4994 269° West 286 329 4,000 -390 Descending Chicago Center
Sun 08:18:17 AM 41.5219 -87.6003 278° West 285 328 4,000 -49 Level Chicago Center
Sun 08:19:18 AM 41.5453 -87.6981 288° West 282 325 3,900 -492 Descending Chicago Center
Sun 08:20:19 AM 41.5992 -87.7969 306° West 278 320 3,000 -474 Descending Chicago Center
Sun 08:21:12 AM 41.6333 -87.8500 311° West 240 276 3,000 -212 Level Chicago TRACON
Sun 08:22:12 AM 41.7000 -87.8500 360° North 194 223 2,600 -500 Descending Chicago TRACON
Sun 08:23:12 AM 41.7333 -87.8167 37° Northeast 160 184 2,000 -650 Descending Chicago TRACON
Sun 08:24:12 AM 41.7500 -87.7833 56° Northeast 127 146 1,300 -700 Descending Chicago TRACON

Login

Don't have an account? Register now (free) for customized features, flight alerts, and more!